Forside
METAR-TAF:

METAR-TAF

Lufthavne :

Gary, Indiana, USA

Breddekreds: 41-37N, længdekreds: 087-25W, højde: 180 m

Aktuelle vejr

Denne rapport blev lavet for 54 minutter siden, kl. 00:45 UTC
Vind 4 kt fra nordnordøst
Temperatur 25°C
Fugtighed 94%
Tryk 1016 hPa
Sigt: 16.1 km
skyfri

METAR: KGYY 050045Z 02004KT 10SM SKC 25/24 A2999

Tid: 20:39 (01:39 UTC)

Vejrudsigter

Denne rapport blev lavet for 2 timer og 19 minutter siden, kl. 23:20 UTC
Foreløbig gælder fra 05 på 00 UTC til 05 på 24 UTC
Vind 6 kt fra nordnordøst
Sigt: 10 km
skyfri

TAF: KGYY 042320Z 0500/0524 03006KT P6SM SKC

Vejrobservationer og prognoser fra mere end 4000 lufthavne (METAR og TAF).

De gule og røde prikker repræsenterer de meteorologiske stationer.

Flyt musen over at se navnet på stationen.

Så klik over at se vejr observationer og prognoser.

At skifte det kort: Klik på de grønne knapper med et sort kors for at zoome ind; på den grønne knap med en bindestreg for at zoome ud; eller på de grønne pile for tilstødende kort.


METAR-TAF: